sensor_id;sensor_type;location;lat;lon;timestamp;temperature;humidity
3752;DHT22;50827;47.014;7.652;2023-04-06T00:00:35;2.90;99.90
3752;DHT22;50827;47.014;7.652;2023-04-06T00:03:02;2.80;99.90
3752;DHT22;50827;47.014;7.652;2023-04-06T00:05:29;2.80;99.90
3752;DHT22;50827;47.014;7.652;2023-04-06T00:07:57;2.70;99.90
3752;DHT22;50827;47.014;7.652;2023-04-06T00:10:24;2.80;99.90
3752;DHT22;50827;47.014;7.652;2023-04-06T00:12:52;2.80;99.90
3752;DHT22;50827;47.014;7.652;2023-04-06T00:15:19;2.70;99.90
3752;DHT22;50827;47.014;7.652;2023-04-06T00:17:46;2.70;99.90
3752;DHT22;50827;47.014;7.652;2023-04-06T00:20:13;2.70;99.90
3752;DHT22;50827;47.014;7.652;2023-04-06T00:22:40;2.70;99.90
3752;DHT22;50827;47.014;7.652;2023-04-06T00:25:08;2.70;99.90
3752;DHT22;50827;47.014;7.652;2023-04-06T00:27:35;2.60;99.90
3752;DHT22;50827;47.014;7.652;2023-04-06T00:30:03;2.70;99.90
3752;DHT22;50827;47.014;7.652;2023-04-06T00:32:31;2.70;99.90
3752;DHT22;50827;47.014;7.652;2023-04-06T00:34:58;2.70;99.90
3752;DHT22;50827;47.014;7.652;2023-04-06T00:37:25;2.60;99.90
3752;DHT22;50827;47.014;7.652;2023-04-06T00:39:51;2.60;99.90
3752;DHT22;50827;47.014;7.652;2023-04-06T00:42:18;2.60;99.90
3752;DHT22;50827;47.014;7.652;2023-04-06T00:45:01;2.60;99.90
3752;DHT22;50827;47.014;7.652;2023-04-06T00:47:28;2.50;99.90
3752;DHT22;50827;47.014;7.652;2023-04-06T00:49:56;2.50;99.90
3752;DHT22;50827;47.014;7.652;2023-04-06T00:52:22;2.40;99.90
3752;DHT22;50827;47.014;7.652;2023-04-06T00:54:49;2.40;99.90
3752;DHT22;50827;47.014;7.652;2023-04-06T00:57:17;2.30;99.90
3752;DHT22;50827;47.014;7.652;2023-04-06T00:59:45;2.40;99.90
3752;DHT22;50827;47.014;7.652;2023-04-06T01:02:12;2.30;99.90
3752;DHT22;50827;47.014;7.652;2023-04-06T01:04:39;2.40;99.90
3752;DHT22;50827;47.014;7.652;2023-04-06T01:07:06;2.30;99.90
3752;DHT22;50827;47.014;7.652;2023-04-06T01:09:32;2.30;99.90
3752;DHT22;50827;47.014;7.652;2023-04-06T01:11:59;2.20;99.90
3752;DHT22;50827;47.014;7.652;2023-04-06T01:14:26;2.30;99.90
3752;DHT22;50827;47.014;7.652;2023-04-06T01:16:53;2.30;99.90
3752;DHT22;50827;47.014;7.652;2023-04-06T01:19:20;2.20;99.90
3752;DHT22;50827;47.014;7.652;2023-04-06T01:21:48;2.20;99.90
3752;DHT22;50827;47.014;7.652;2023-04-06T01:24:17;2.20;99.90
3752;DHT22;50827;47.014;7.652;2023-04-06T01:26:44;2.20;99.90
3752;DHT22;50827;47.014;7.652;2023-04-06T01:29:11;2.10;99.90
3752;DHT22;50827;47.014;7.652;2023-04-06T01:31:39;2.10;99.90
3752;DHT22;50827;47.014;7.652;2023-04-06T01:34:06;2.10;99.90
3752;DHT22;50827;47.014;7.652;2023-04-06T01:36:33;2.20;99.90
3752;DHT22;50827;47.014;7.652;2023-04-06T01:39:00;2.20;99.90
3752;DHT22;50827;47.014;7.652;2023-04-06T01:41:26;2.20;99.90
3752;DHT22;50827;47.014;7.652;2023-04-06T01:43:53;2.20;99.90
3752;DHT22;50827;47.014;7.652;2023-04-06T01:46:21;2.20;99.90
3752;DHT22;50827;47.014;7.652;2023-04-06T01:48:47;2.20;99.90
3752;DHT22;50827;47.014;7.652;2023-04-06T01:51:14;2.10;99.90
3752;DHT22;50827;47.014;7.652;2023-04-06T01:53:41;2.10;99.90
3752;DHT22;50827;47.014;7.652;2023-04-06T01:56:08;2.10;99.90
3752;DHT22;50827;47.014;7.652;2023-04-06T01:58:35;2.10;99.90
3752;DHT22;50827;47.014;7.652;2023-04-06T02:01:02;2.10;99.90
3752;DHT22;50827;47.014;7.652;2023-04-06T02:03:28;2.00;99.90
3752;DHT22;50827;47.014;7.652;2023-04-06T02:05:55;2.00;99.90
3752;DHT22;50827;47.014;7.652;2023-04-06T02:08:22;1.90;99.90
3752;DHT22;50827;47.014;7.652;2023-04-06T02:10:49;2.00;99.90
3752;DHT22;50827;47.014;7.652;2023-04-06T02:13:15;1.90;99.90
3752;DHT22;50827;47.014;7.652;2023-04-06T02:15:42;1.90;99.90
3752;DHT22;50827;47.014;7.652;2023-04-06T02:18:09;1.90;99.90
3752;DHT22;50827;47.014;7.652;2023-04-06T02:20:36;1.80;99.90
3752;DHT22;50827;47.014;7.652;2023-04-06T02:23:03;1.80;99.90
3752;DHT22;50827;47.014;7.652;2023-04-06T02:25:30;1.80;99.90
3752;DHT22;50827;47.014;7.652;2023-04-06T02:27:56;1.80;99.90
3752;DHT22;50827;47.014;7.652;2023-04-06T02:30:23;1.80;99.90
3752;DHT22;50827;47.014;7.652;2023-04-06T02:32:50;1.80;99.90
3752;DHT22;50827;47.014;7.652;2023-04-06T02:35:16;1.80;99.90
3752;DHT22;50827;47.014;7.652;2023-04-06T02:37:43;1.80;99.90
3752;DHT22;50827;47.014;7.652;2023-04-06T02:40:10;1.80;99.90
3752;DHT22;50827;47.014;7.652;2023-04-06T02:42:37;1.90;99.90
3752;DHT22;50827;47.014;7.652;2023-04-06T02:45:04;1.80;99.90
3752;DHT22;50827;47.014;7.652;2023-04-06T02:47:31;1.80;99.90
3752;DHT22;50827;47.014;7.652;2023-04-06T02:49:57;1.80;99.90
3752;DHT22;50827;47.014;7.652;2023-04-06T02:52:24;1.80;99.90
3752;DHT22;50827;47.014;7.652;2023-04-06T02:54:51;1.80;99.90
3752;DHT22;50827;47.014;7.652;2023-04-06T02:57:17;1.80;99.90
3752;DHT22;50827;47.014;7.652;2023-04-06T02:59:44;1.80;99.90
3752;DHT22;50827;47.014;7.652;2023-04-06T03:02:11;1.80;99.90
3752;DHT22;50827;47.014;7.652;2023-04-06T03:04:38;1.80;99.90
3752;DHT22;50827;47.014;7.652;2023-04-06T03:07:04;1.80;99.90
3752;DHT22;50827;47.014;7.652;2023-04-06T03:09:31;1.80;99.90
3752;DHT22;50827;47.014;7.652;2023-04-06T03:11:58;1.80;99.90
3752;DHT22;50827;47.014;7.652;2023-04-06T03:14:24;1.80;99.90
3752;DHT22;50827;47.014;7.652;2023-04-06T03:16:51;1.70;99.90
3752;DHT22;50827;47.014;7.652;2023-04-06T03:19:18;1.70;99.90
3752;DHT22;50827;47.014;7.652;2023-04-06T03:21:44;1.60;99.90
3752;DHT22;50827;47.014;7.652;2023-04-06T03:24:12;1.60;99.90
3752;DHT22;50827;47.014;7.652;2023-04-06T03:26:40;1.50;99.90
3752;DHT22;50827;47.014;7.652;2023-04-06T03:29:06;1.50;99.90
3752;DHT22;50827;47.014;7.652;2023-04-06T03:31:34;1.50;99.90
3752;DHT22;50827;47.014;7.652;2023-04-06T03:34:00;1.40;99.90
3752;DHT22;50827;47.014;7.652;2023-04-06T03:36:27;1.50;99.90
3752;DHT22;50827;47.014;7.652;2023-04-06T03:38:54;1.40;99.90
3752;DHT22;50827;47.014;7.652;2023-04-06T03:41:20;1.40;99.90
3752;DHT22;50827;47.014;7.652;2023-04-06T03:43:47;1.50;99.90
3752;DHT22;50827;47.014;7.652;2023-04-06T03:46:14;1.50;99.90
3752;DHT22;50827;47.014;7.652;2023-04-06T03:48:41;1.50;99.90
3752;DHT22;50827;47.014;7.652;2023-04-06T03:51:07;1.40;99.90
3752;DHT22;50827;47.014;7.652;2023-04-06T03:53:34;1.50;99.90
3752;DHT22;50827;47.014;7.652;2023-04-06T03:56:03;1.40;99.90
3752;DHT22;50827;47.014;7.652;2023-04-06T03:58:30;1.40;99.90
3752;DHT22;50827;47.014;7.652;2023-04-06T04:00:57;1.40;99.90
3752;DHT22;50827;47.014;7.652;2023-04-06T04:03:24;1.40;99.90
3752;DHT22;50827;47.014;7.652;2023-04-06T04:05:54;1.30;99.90
3752;DHT22;50827;47.014;7.652;2023-04-06T04:08:21;1.30;99.90
3752;DHT22;50827;47.014;7.652;2023-04-06T04:10:48;1.30;99.90
3752;DHT22;50827;47.014;7.652;2023-04-06T04:13:15;1.20;99.90
3752;DHT22;50827;47.014;7.652;2023-04-06T04:15:42;1.20;99.90
3752;DHT22;50827;47.014;7.652;2023-04-06T04:18:08;1.20;99.90
3752;DHT22;50827;47.014;7.652;2023-04-06T04:20:35;1.30;99.90
3752;DHT22;50827;47.014;7.652;2023-04-06T04:23:02;1.30;99.90
3752;DHT22;50827;47.014;7.652;2023-04-06T04:25:29;1.30;99.90
3752;DHT22;50827;47.014;7.652;2023-04-06T04:27:55;1.30;99.90
3752;DHT22;50827;47.014;7.652;2023-04-06T04:30:22;1.30;99.90
3752;DHT22;50827;47.014;7.652;2023-04-06T04:32:48;1.30;99.90
3752;DHT22;50827;47.014;7.652;2023-04-06T04:35:15;1.30;99.90
3752;DHT22;50827;47.014;7.652;2023-04-06T04:37:42;1.40;99.90
3752;DHT22;50827;47.014;7.652;2023-04-06T04:40:09;1.40;99.90
3752;DHT22;50827;47.014;7.652;2023-04-06T04:42:36;1.40;99.90
3752;DHT22;50827;47.014;7.652;2023-04-06T04:45:03;1.40;99.90
3752;DHT22;50827;47.014;7.652;2023-04-06T04:47:30;1.40;99.90
3752;DHT22;50827;47.014;7.652;2023-04-06T04:49:56;1.40;99.90
3752;DHT22;50827;47.014;7.652;2023-04-06T04:52:23;1.40;99.90
3752;DHT22;50827;47.014;7.652;2023-04-06T04:54:50;1.50;99.90
3752;DHT22;50827;47.014;7.652;2023-04-06T04:57:17;1.50;99.90
3752;DHT22;50827;47.014;7.652;2023-04-06T04:59:43;1.40;99.90
3752;DHT22;50827;47.014;7.652;2023-04-06T05:02:10;1.40;99.90
3752;DHT22;50827;47.014;7.652;2023-04-06T05:04:37;1.30;99.90
3752;DHT22;50827;47.014;7.652;2023-04-06T05:07:07;1.30;99.90
3752;DHT22;50827;47.014;7.652;2023-04-06T05:09:34;1.30;99.90
3752;DHT22;50827;47.014;7.652;2023-04-06T05:12:01;1.30;99.90
3752;DHT22;50827;47.014;7.652;2023-04-06T05:14:28;1.30;99.90
3752;DHT22;50827;47.014;7.652;2023-04-06T05:16:55;1.30;99.90
3752;DHT22;50827;47.014;7.652;2023-04-06T05:19:21;1.30;99.90
3752;DHT22;50827;47.014;7.652;2023-04-06T05:21:48;1.20;99.90
3752;DHT22;50827;47.014;7.652;2023-04-06T05:24:15;1.10;99.90
3752;DHT22;50827;47.014;7.652;2023-04-06T05:26:42;1.10;99.90
3752;DHT22;50827;47.014;7.652;2023-04-06T05:29:09;1.20;99.90
3752;DHT22;50827;47.014;7.652;2023-04-06T05:31:37;1.20;99.90
3752;DHT22;50827;47.014;7.652;2023-04-06T05:34:03;1.30;99.90
3752;DHT22;50827;47.014;7.652;2023-04-06T05:36:30;1.20;99.90
3752;DHT22;50827;47.014;7.652;2023-04-06T05:38:58;1.20;99.90
3752;DHT22;50827;47.014;7.652;2023-04-06T05:41:25;1.20;99.90
3752;DHT22;50827;47.014;7.652;2023-04-06T05:43:52;1.20;99.90
3752;DHT22;50827;47.014;7.652;2023-04-06T05:46:19;1.20;99.90
3752;DHT22;50827;47.014;7.652;2023-04-06T05:48:46;1.20;99.90
3752;DHT22;50827;47.014;7.652;2023-04-06T05:51:13;1.20;99.90
3752;DHT22;50827;47.014;7.652;2023-04-06T05:53:39;1.20;99.90
3752;DHT22;50827;47.014;7.652;2023-04-06T05:56:06;1.20;99.90
3752;DHT22;50827;47.014;7.652;2023-04-06T05:58:33;1.30;99.90
3752;DHT22;50827;47.014;7.652;2023-04-06T06:01:00;1.30;99.90
3752;DHT22;50827;47.014;7.652;2023-04-06T06:03:27;1.40;99.90
3752;DHT22;50827;47.014;7.652;2023-04-06T06:06:02;1.40;99.90
3752;DHT22;50827;47.014;7.652;2023-04-06T06:08:31;1.40;99.90
3752;DHT22;50827;47.014;7.652;2023-04-06T06:10:57;1.40;99.90
3752;DHT22;50827;47.014;7.652;2023-04-06T06:13:24;1.50;99.90
3752;DHT22;50827;47.014;7.652;2023-04-06T06:15:51;1.50;99.90
3752;DHT22;50827;47.014;7.652;2023-04-06T06:18:18;1.50;99.90
3752;DHT22;50827;47.014;7.652;2023-04-06T06:20:45;1.60;99.90
3752;DHT22;50827;47.014;7.652;2023-04-06T06:23:12;1.70;99.90
3752;DHT22;50827;47.014;7.652;2023-04-06T06:25:39;1.80;99.90
3752;DHT22;50827;47.014;7.652;2023-04-06T06:28:05;1.80;99.90
3752;DHT22;50827;47.014;7.652;2023-04-06T06:30:32;1.90;99.90
3752;DHT22;50827;47.014;7.652;2023-04-06T06:32:59;2.00;99.90
3752;DHT22;50827;47.014;7.652;2023-04-06T06:35:26;2.10;99.90
3752;DHT22;50827;47.014;7.652;2023-04-06T06:37:53;2.20;99.90
3752;DHT22;50827;47.014;7.652;2023-04-06T06:40:19;2.20;99.90
3752;DHT22;50827;47.014;7.652;2023-04-06T06:42:50;2.30;99.90
3752;DHT22;50827;47.014;7.652;2023-04-06T06:45:17;2.40;99.90
3752;DHT22;50827;47.014;7.652;2023-04-06T06:47:45;2.50;99.90
3752;DHT22;50827;47.014;7.652;2023-04-06T06:50:12;2.50;99.90
3752;DHT22;50827;47.014;7.652;2023-04-06T06:52:39;2.60;99.90
3752;DHT22;50827;47.014;7.652;2023-04-06T06:55:06;2.70;99.90
3752;DHT22;50827;47.014;7.652;2023-04-06T06:57:33;2.80;99.90
3752;DHT22;50827;47.014;7.652;2023-04-06T07:00:00;2.90;99.90
3752;DHT22;50827;47.014;7.652;2023-04-06T07:02:26;2.90;99.90
3752;DHT22;50827;47.014;7.652;2023-04-06T07:04:53;3.00;99.90
3752;DHT22;50827;47.014;7.652;2023-04-06T07:07:20;3.00;99.90
3752;DHT22;50827;47.014;7.652;2023-04-06T07:09:47;3.10;99.90
3752;DHT22;50827;47.014;7.652;2023-04-06T07:12:13;3.20;99.90
3752;DHT22;50827;47.014;7.652;2023-04-06T07:14:40;3.30;99.90
3752;DHT22;50827;47.014;7.652;2023-04-06T07:17:07;3.30;99.90
3752;DHT22;50827;47.014;7.652;2023-04-06T07:19:34;3.50;99.90
3752;DHT22;50827;47.014;7.652;2023-04-06T07:22:01;3.60;99.90
3752;DHT22;50827;47.014;7.652;2023-04-06T07:24:29;3.60;99.90
3752;DHT22;50827;47.014;7.652;2023-04-06T07:26:55;3.70;99.90
3752;DHT22;50827;47.014;7.652;2023-04-06T07:29:23;3.80;99.90
3752;DHT22;50827;47.014;7.652;2023-04-06T07:31:49;3.90;99.90
3752;DHT22;50827;47.014;7.652;2023-04-06T07:34:16;3.90;99.90
3752;DHT22;50827;47.014;7.652;2023-04-06T07:36:43;4.00;99.90
3752;DHT22;50827;47.014;7.652;2023-04-06T07:39:10;4.10;99.90
3752;DHT22;50827;47.014;7.652;2023-04-06T07:41:37;4.10;99.90
3752;DHT22;50827;47.014;7.652;2023-04-06T07:44:04;4.20;99.90
3752;DHT22;50827;47.014;7.652;2023-04-06T07:46:31;4.30;99.90
3752;DHT22;50827;47.014;7.652;2023-04-06T07:48:59;4.40;99.90
3752;DHT22;50827;47.014;7.652;2023-04-06T07:51:27;4.50;99.90
3752;DHT22;50827;47.014;7.652;2023-04-06T07:53:53;4.60;99.90
3752;DHT22;50827;47.014;7.652;2023-04-06T07:56:21;4.60;99.90
3752;DHT22;50827;47.014;7.652;2023-04-06T07:58:48;4.70;99.90
3752;DHT22;50827;47.014;7.652;2023-04-06T08:01:15;4.80;99.90
3752;DHT22;50827;47.014;7.652;2023-04-06T08:03:42;4.90;99.90
3752;DHT22;50827;47.014;7.652;2023-04-06T08:06:09;5.00;99.90
3752;DHT22;50827;47.014;7.652;2023-04-06T08:08:36;5.10;99.90
3752;DHT22;50827;47.014;7.652;2023-04-06T08:11:02;5.20;99.90
3752;DHT22;50827;47.014;7.652;2023-04-06T08:13:29;5.30;99.90
3752;DHT22;50827;47.014;7.652;2023-04-06T08:15:57;5.30;99.90
3752;DHT22;50827;47.014;7.652;2023-04-06T08:18:23;5.40;99.90
3752;DHT22;50827;47.014;7.652;2023-04-06T08:20:50;5.50;99.90
3752;DHT22;50827;47.014;7.652;2023-04-06T08:23:17;5.50;99.90
3752;DHT22;50827;47.014;7.652;2023-04-06T08:25:44;5.60;99.90
3752;DHT22;50827;47.014;7.652;2023-04-06T08:28:10;5.70;99.90
3752;DHT22;50827;47.014;7.652;2023-04-06T08:30:40;5.80;99.90
3752;DHT22;50827;47.014;7.652;2023-04-06T08:33:06;5.90;99.90
3752;DHT22;50827;47.014;7.652;2023-04-06T08:35:33;6.00;99.90
3752;DHT22;50827;47.014;7.652;2023-04-06T08:38:00;6.10;99.90
3752;DHT22;50827;47.014;7.652;2023-04-06T08:40:27;6.20;99.90
3752;DHT22;50827;47.014;7.652;2023-04-06T08:42:55;6.30;99.90
3752;DHT22;50827;47.014;7.652;2023-04-06T08:45:22;6.30;99.90
3752;DHT22;50827;47.014;7.652;2023-04-06T08:47:52;6.40;99.90
3752;DHT22;50827;47.014;7.652;2023-04-06T08:50:20;6.50;99.90
3752;DHT22;50827;47.014;7.652;2023-04-06T08:52:48;6.50;99.90
3752;DHT22;50827;47.014;7.652;2023-04-06T08:55:15;6.60;99.90
3752;DHT22;50827;47.014;7.652;2023-04-06T08:57:42;6.70;99.90
3752;DHT22;50827;47.014;7.652;2023-04-06T09:00:11;6.80;99.90
3752;DHT22;50827;47.014;7.652;2023-04-06T09:02:39;6.80;99.90
3752;DHT22;50827;47.014;7.652;2023-04-06T09:05:08;7.00;99.90
3752;DHT22;50827;47.014;7.652;2023-04-06T09:07:36;7.10;99.90
3752;DHT22;50827;47.014;7.652;2023-04-06T09:10:05;7.20;99.90
3752;DHT22;50827;47.014;7.652;2023-04-06T09:12:32;7.30;99.90
3752;DHT22;50827;47.014;7.652;2023-04-06T09:15:00;7.30;99.90
3752;DHT22;50827;47.014;7.652;2023-04-06T09:17:31;7.40;99.90
3752;DHT22;50827;47.014;7.652;2023-04-06T09:20:01;7.50;99.90
3752;DHT22;50827;47.014;7.652;2023-04-06T09:22:39;7.60;99.90
3752;DHT22;50827;47.014;7.652;2023-04-06T09:25:09;7.70;99.90
3752;DHT22;50827;47.014;7.652;2023-04-06T09:27:37;7.70;99.90
3752;DHT22;50827;47.014;7.652;2023-04-06T09:30:07;7.70;99.90
3752;DHT22;50827;47.014;7.652;2023-04-06T09:32:45;7.80;99.90
3752;DHT22;50827;47.014;7.652;2023-04-06T09:35:13;7.80;99.90
3752;DHT22;50827;47.014;7.652;2023-04-06T09:37:40;7.90;99.90
3752;DHT22;50827;47.014;7.652;2023-04-06T09:40:08;7.90;99.90
3752;DHT22;50827;47.014;7.652;2023-04-06T09:42:35;8.00;99.90
3752;DHT22;50827;47.014;7.652;2023-04-06T09:45:02;8.00;99.90
3752;DHT22;50827;47.014;7.652;2023-04-06T09:47:31;8.00;99.90
3752;DHT22;50827;47.014;7.652;2023-04-06T09:50:00;8.10;99.90
3752;DHT22;50827;47.014;7.652;2023-04-06T09:52:37;8.20;99.90
3752;DHT22;50827;47.014;7.652;2023-04-06T09:55:05;8.30;99.90
3752;DHT22;50827;47.014;7.652;2023-04-06T09:57:45;8.40;99.90
3752;DHT22;50827;47.014;7.652;2023-04-06T10:00:17;8.50;99.90
3752;DHT22;50827;47.014;7.652;2023-04-06T10:02:58;8.50;99.90
3752;DHT22;50827;47.014;7.652;2023-04-06T10:05:33;8.60;99.90
3752;DHT22;50827;47.014;7.652;2023-04-06T10:08:08;8.70;99.90
3752;DHT22;50827;47.014;7.652;2023-04-06T10:10:35;8.80;99.90
3752;DHT22;50827;47.014;7.652;2023-04-06T10:13:03;8.90;99.90
3752;DHT22;50827;47.014;7.652;2023-04-06T10:15:31;8.90;99.90
3752;DHT22;50827;47.014;7.652;2023-04-06T10:17:59;8.90;99.90
3752;DHT22;50827;47.014;7.652;2023-04-06T10:20:38;9.00;99.90
3752;DHT22;50827;47.014;7.652;2023-04-06T10:23:07;9.00;99.90
3752;DHT22;50827;47.014;7.652;2023-04-06T10:25:34;9.10;99.90
3752;DHT22;50827;47.014;7.652;2023-04-06T10:28:05;9.20;99.90
3752;DHT22;50827;47.014;7.652;2023-04-06T10:30:33;9.20;99.90
3752;DHT22;50827;47.014;7.652;2023-04-06T10:33:00;9.30;99.90
3752;DHT22;50827;47.014;7.652;2023-04-06T10:35:37;9.30;99.90
3752;DHT22;50827;47.014;7.652;2023-04-06T10:38:05;9.40;99.90
3752;DHT22;50827;47.014;7.652;2023-04-06T10:40:36;9.40;99.90
3752;DHT22;50827;47.014;7.652;2023-04-06T10:43:13;9.50;99.90
3752;DHT22;50827;47.014;7.652;2023-04-06T10:45:41;9.50;99.90
3752;DHT22;50827;47.014;7.652;2023-04-06T10:48:16;9.40;99.90
3752;DHT22;50827;47.014;7.652;2023-04-06T10:50:46;9.40;99.90
3752;DHT22;50827;47.014;7.652;2023-04-06T10:53:21;9.50;99.90
3752;DHT22;50827;47.014;7.652;2023-04-06T10:55:54;9.60;99.90
3752;DHT22;50827;47.014;7.652;2023-04-06T10:58:25;9.70;99.90
3752;DHT22;50827;47.014;7.652;2023-04-06T11:00:51;9.70;99.90
3752;DHT22;50827;47.014;7.652;2023-04-06T11:03:18;9.90;99.90
3752;DHT22;50827;47.014;7.652;2023-04-06T11:05:46;9.90;99.90
3752;DHT22;50827;47.014;7.652;2023-04-06T11:08:33;10.10;99.90
3752;DHT22;50827;47.014;7.652;2023-04-06T11:11:12;10.10;99.90
3752;DHT22;50827;47.014;7.652;2023-04-06T11:13:54;10.20;99.90
3752;DHT22;50827;47.014;7.652;2023-04-06T11:16:26;10.40;99.90
3752;DHT22;50827;47.014;7.652;2023-04-06T11:21:44;10.50;99.90
3752;DHT22;50827;47.014;7.652;2023-04-06T11:24:19;10.50;99.90
3752;DHT22;50827;47.014;7.652;2023-04-06T11:26:54;10.50;99.90
3752;DHT22;50827;47.014;7.652;2023-04-06T11:29:28;10.60;99.90
3752;DHT22;50827;47.014;7.652;2023-04-06T11:32:06;10.60;99.90
3752;DHT22;50827;47.014;7.652;2023-04-06T11:34:38;10.70;99.90
3752;DHT22;50827;47.014;7.652;2023-04-06T11:37:11;10.80;99.90
3752;DHT22;50827;47.014;7.652;2023-04-06T11:39:50;10.90;99.90
3752;DHT22;50827;47.014;7.652;2023-04-06T11:42:25;10.90;99.90
3752;DHT22;50827;47.014;7.652;2023-04-06T11:44:57;10.90;99.90
3752;DHT22;50827;47.014;7.652;2023-04-06T11:47:33;11.00;99.90
3752;DHT22;50827;47.014;7.652;2023-04-06T11:50:13;11.00;99.90
3752;DHT22;50827;47.014;7.652;2023-04-06T11:52:40;11.00;99.90
3752;DHT22;50827;47.014;7.652;2023-04-06T11:55:18;11.00;99.90
3752;DHT22;50827;47.014;7.652;2023-04-06T11:57:45;11.10;99.90
3752;DHT22;50827;47.014;7.652;2023-04-06T12:00:12;11.20;99.90
3752;DHT22;50827;47.014;7.652;2023-04-06T12:02:39;11.20;99.90
3752;DHT22;50827;47.014;7.652;2023-04-06T12:05:07;11.30;99.90
3752;DHT22;50827;47.014;7.652;2023-04-06T12:07:34;11.30;99.90
3752;DHT22;50827;47.014;7.652;2023-04-06T12:10:02;11.30;99.90
3752;DHT22;50827;47.014;7.652;2023-04-06T12:12:29;11.30;99.90
3752;DHT22;50827;47.014;7.652;2023-04-06T12:14:56;11.30;99.90
3752;DHT22;50827;47.014;7.652;2023-04-06T12:17:23;11.40;99.90
3752;DHT22;50827;47.014;7.652;2023-04-06T12:19:50;11.40;99.90
3752;DHT22;50827;47.014;7.652;2023-04-06T12:22:18;11.50;99.90
3752;DHT22;50827;47.014;7.652;2023-04-06T12:24:44;11.40;99.90
3752;DHT22;50827;47.014;7.652;2023-04-06T12:27:11;11.50;99.90
3752;DHT22;50827;47.014;7.652;2023-04-06T12:29:38;11.50;99.90
3752;DHT22;50827;47.014;7.652;2023-04-06T12:32:05;11.50;99.90
3752;DHT22;50827;47.014;7.652;2023-04-06T12:34:32;11.50;99.90
3752;DHT22;50827;47.014;7.652;2023-04-06T12:36:59;11.60;99.90
3752;DHT22;50827;47.014;7.652;2023-04-06T12:39:27;11.60;99.90
3752;DHT22;50827;47.014;7.652;2023-04-06T12:41:54;11.60;99.90
3752;DHT22;50827;47.014;7.652;2023-04-06T12:44:22;11.70;99.90
3752;DHT22;50827;47.014;7.652;2023-04-06T12:46:52;11.80;99.90
3752;DHT22;50827;47.014;7.652;2023-04-06T12:49:19;11.80;99.90
3752;DHT22;50827;47.014;7.652;2023-04-06T12:51:46;11.90;99.90
3752;DHT22;50827;47.014;7.652;2023-04-06T12:54:12;11.90;99.90
3752;DHT22;50827;47.014;7.652;2023-04-06T12:56:39;11.90;99.90
3752;DHT22;50827;47.014;7.652;2023-04-06T12:59:06;11.90;98.10
3752;DHT22;50827;47.014;7.652;2023-04-06T13:01:33;11.90;98.50
3752;DHT22;50827;47.014;7.652;2023-04-06T13:04:00;11.90;97.20
3752;DHT22;50827;47.014;7.652;2023-04-06T13:06:27;11.90;97.50
3752;DHT22;50827;47.014;7.652;2023-04-06T13:08:54;12.00;99.30
3752;DHT22;50827;47.014;7.652;2023-04-06T13:11:21;12.00;97.40
3752;DHT22;50827;47.014;7.652;2023-04-06T13:13:52;12.10;96.30
3752;DHT22;50827;47.014;7.652;2023-04-06T13:16:19;12.10;95.00
3752;DHT22;50827;47.014;7.652;2023-04-06T13:18:46;12.20;98.10
3752;DHT22;50827;47.014;7.652;2023-04-06T13:21:16;12.30;98.30
3752;DHT22;50827;47.014;7.652;2023-04-06T13:23:43;12.30;96.90
3752;DHT22;50827;47.014;7.652;2023-04-06T13:26:10;12.30;95.80
3752;DHT22;50827;47.014;7.652;2023-04-06T13:28:37;12.20;97.30
3752;DHT22;50827;47.014;7.652;2023-04-06T13:31:05;12.20;98.60
3752;DHT22;50827;47.014;7.652;2023-04-06T13:33:32;12.20;99.10
3752;DHT22;50827;47.014;7.652;2023-04-06T13:36:00;12.20;96.80
3752;DHT22;50827;47.014;7.652;2023-04-06T13:38:27;12.20;96.80
3752;DHT22;50827;47.014;7.652;2023-04-06T13:40:54;12.30;99.20
3752;DHT22;50827;47.014;7.652;2023-04-06T13:43:21;12.30;97.70
3752;DHT22;50827;47.014;7.652;2023-04-06T13:45:52;12.20;98.20
3752;DHT22;50827;47.014;7.652;2023-04-06T13:48:20;12.20;99.80
3752;DHT22;50827;47.014;7.652;2023-04-06T13:50:47;12.20;98.30
3752;DHT22;50827;47.014;7.652;2023-04-06T13:53:14;12.20;98.90
3752;DHT22;50827;47.014;7.652;2023-04-06T13:55:41;12.20;99.40
3752;DHT22;50827;47.014;7.652;2023-04-06T13:58:08;12.30;99.90
3752;DHT22;50827;47.014;7.652;2023-04-06T14:00:36;12.30;99.90
3752;DHT22;50827;47.014;7.652;2023-04-06T14:03:03;12.30;98.90
3752;DHT22;50827;47.014;7.652;2023-04-06T14:05:32;12.30;99.90
3752;DHT22;50827;47.014;7.652;2023-04-06T14:07:58;12.30;99.90
3752;DHT22;50827;47.014;7.652;2023-04-06T14:10:25;12.30;99.90
3752;DHT22;50827;47.014;7.652;2023-04-06T14:12:54;12.30;99.00
3752;DHT22;50827;47.014;7.652;2023-04-06T14:15:20;12.30;97.40
3752;DHT22;50827;47.014;7.652;2023-04-06T14:17:48;12.30;97.60
3752;DHT22;50827;47.014;7.652;2023-04-06T14:20:15;12.30;96.50
3752;DHT22;50827;47.014;7.652;2023-04-06T14:22:42;12.30;97.50
3752;DHT22;50827;47.014;7.652;2023-04-06T14:25:10;12.30;97.80
3752;DHT22;50827;47.014;7.652;2023-04-06T14:27:38;12.40;99.60
3752;DHT22;50827;47.014;7.652;2023-04-06T14:30:05;12.40;99.30
3752;DHT22;50827;47.014;7.652;2023-04-06T14:32:32;12.40;99.90
3752;DHT22;50827;47.014;7.652;2023-04-06T14:34:59;12.40;99.30
3752;DHT22;50827;47.014;7.652;2023-04-06T14:37:26;12.40;99.90
3752;DHT22;50827;47.014;7.652;2023-04-06T14:39:53;12.30;98.50
3752;DHT22;50827;47.014;7.652;2023-04-06T14:42:20;12.30;99.60
3752;DHT22;50827;47.014;7.652;2023-04-06T14:44:46;12.30;99.00
3752;DHT22;50827;47.014;7.652;2023-04-06T14:47:15;12.30;98.00
3752;DHT22;50827;47.014;7.652;2023-04-06T14:49:51;12.30;98.80
3752;DHT22;50827;47.014;7.652;2023-04-06T14:52:18;12.20;97.80
3752;DHT22;50827;47.014;7.652;2023-04-06T14:54:44;12.30;99.40
3752;DHT22;50827;47.014;7.652;2023-04-06T14:57:11;12.30;99.50
3752;DHT22;50827;47.014;7.652;2023-04-06T14:59:38;12.30;99.20
3752;DHT22;50827;47.014;7.652;2023-04-06T15:02:06;12.30;99.50
3752;DHT22;50827;47.014;7.652;2023-04-06T15:04:36;12.30;98.60
3752;DHT22;50827;47.014;7.652;2023-04-06T15:07:03;12.30;99.80
3752;DHT22;50827;47.014;7.652;2023-04-06T15:09:30;12.30;99.20
3752;DHT22;50827;47.014;7.652;2023-04-06T15:11:57;12.30;98.50
3752;DHT22;50827;47.014;7.652;2023-04-06T15:14:24;12.30;98.00
3752;DHT22;50827;47.014;7.652;2023-04-06T15:16:50;12.30;97.70
3752;DHT22;50827;47.014;7.652;2023-04-06T15:19:17;12.30;97.00
3752;DHT22;50827;47.014;7.652;2023-04-06T15:21:44;12.30;96.70
3752;DHT22;50827;47.014;7.652;2023-04-06T15:24:11;12.40;96.90
3752;DHT22;50827;47.014;7.652;2023-04-06T15:26:37;12.40;96.60
3752;DHT22;50827;47.014;7.652;2023-04-06T15:29:04;12.40;98.30
3752;DHT22;50827;47.014;7.652;2023-04-06T15:31:31;12.50;98.20
3752;DHT22;50827;47.014;7.652;2023-04-06T15:34:05;12.50;97.20
3752;DHT22;50827;47.014;7.652;2023-04-06T15:36:34;12.60;97.40
3752;DHT22;50827;47.014;7.652;2023-04-06T15:39:02;12.60;97.10
3752;DHT22;50827;47.014;7.652;2023-04-06T15:41:29;12.60;97.00
3752;DHT22;50827;47.014;7.652;2023-04-06T15:43:56;12.70;98.20
3752;DHT22;50827;47.014;7.652;2023-04-06T15:46:23;12.60;97.90
3752;DHT22;50827;47.014;7.652;2023-04-06T15:48:49;12.50;97.10
3752;DHT22;50827;47.014;7.652;2023-04-06T15:51:16;12.50;96.60
3752;DHT22;50827;47.014;7.652;2023-04-06T15:53:44;12.50;98.10
3752;DHT22;50827;47.014;7.652;2023-04-06T15:56:11;12.50;98.90
3752;DHT22;50827;47.014;7.652;2023-04-06T15:58:40;12.50;97.80
3752;DHT22;50827;47.014;7.652;2023-04-06T16:01:14;12.50;98.30
3752;DHT22;50827;47.014;7.652;2023-04-06T16:03:41;12.50;98.40